sensor_id;sensor_type;location;lat;lon;timestamp;P1;durP1;ratioP1;P2;durP2;ratioP2
21270;SDS011;10795;50.796;3.860;2023-05-10T00:00:52;13.38;;;6.93;;
21270;SDS011;10795;50.796;3.860;2023-05-10T00:03:18;11.48;;;6.85;;
21270;SDS011;10795;50.796;3.860;2023-05-10T00:05:44;12.95;;;7.40;;
21270;SDS011;10795;50.796;3.860;2023-05-10T00:08:09;10.68;;;6.88;;
21270;SDS011;10795;50.796;3.860;2023-05-10T00:10:35;13.63;;;7.40;;
21270;SDS011;10795;50.796;3.860;2023-05-10T00:13:02;15.95;;;7.78;;
21270;SDS011;10795;50.796;3.860;2023-05-10T00:15:28;14.85;;;8.18;;
21270;SDS011;10795;50.796;3.860;2023-05-10T00:17:56;13.05;;;7.32;;
21270;SDS011;10795;50.796;3.860;2023-05-10T00:20:22;16.10;;;8.55;;
21270;SDS011;10795;50.796;3.860;2023-05-10T00:22:48;11.05;;;7.70;;
21270;SDS011;10795;50.796;3.860;2023-05-10T00:25:13;18.63;;;9.85;;
21270;SDS011;10795;50.796;3.860;2023-05-10T00:27:39;13.98;;;9.02;;
21270;SDS011;10795;50.796;3.860;2023-05-10T00:30:05;14.25;;;9.15;;
21270;SDS011;10795;50.796;3.860;2023-05-10T00:32:32;15.00;;;9.02;;
21270;SDS011;10795;50.796;3.860;2023-05-10T00:34:58;15.18;;;8.90;;
21270;SDS011;10795;50.796;3.860;2023-05-10T00:37:24;14.90;;;8.30;;
21270;SDS011;10795;50.796;3.860;2023-05-10T00:39:49;20.20;;;8.30;;
21270;SDS011;10795;50.796;3.860;2023-05-10T00:42:15;17.15;;;8.05;;
21270;SDS011;10795;50.796;3.860;2023-05-10T00:44:42;19.60;;;9.23;;
21270;SDS011;10795;50.796;3.860;2023-05-10T00:47:07;14.05;;;8.65;;
21270;SDS011;10795;50.796;3.860;2023-05-10T00:49:34;13.90;;;8.32;;
21270;SDS011;10795;50.796;3.860;2023-05-10T00:52:01;16.02;;;9.05;;
21270;SDS011;10795;50.796;3.860;2023-05-10T00:54:28;16.98;;;8.95;;
21270;SDS011;10795;50.796;3.860;2023-05-10T00:56:54;16.83;;;9.25;;
21270;SDS011;10795;50.796;3.860;2023-05-10T00:59:22;18.23;;;9.93;;
21270;SDS011;10795;50.796;3.860;2023-05-10T01:01:48;17.02;;;9.30;;
21270;SDS011;10795;50.796;3.860;2023-05-10T01:04:14;15.55;;;8.80;;
21270;SDS011;10795;50.796;3.860;2023-05-10T01:06:41;21.40;;;9.60;;
21270;SDS011;10795;50.796;3.860;2023-05-10T01:09:07;17.85;;;9.13;;
21270;SDS011;10795;50.796;3.860;2023-05-10T01:11:34;16.50;;;9.65;;
21270;SDS011;10795;50.796;3.860;2023-05-10T01:14:01;16.00;;;9.00;;
21270;SDS011;10795;50.796;3.860;2023-05-10T01:16:29;16.50;;;8.38;;
21270;SDS011;10795;50.796;3.860;2023-05-10T01:18:58;23.65;;;10.25;;
21270;SDS011;10795;50.796;3.860;2023-05-10T01:24:19;16.50;;;8.88;;
21270;SDS011;10795;50.796;3.860;2023-05-10T01:35:59;19.52;;;10.02;;
21270;SDS011;10795;50.796;3.860;2023-05-10T01:41:17;20.55;;;9.73;;
21270;SDS011;10795;50.796;3.860;2023-05-10T01:46:35;16.45;;;9.57;;
21270;SDS011;10795;50.796;3.860;2023-05-10T01:49:03;17.25;;;8.93;;
21270;SDS011;10795;50.796;3.860;2023-05-10T01:54:20;17.10;;;9.30;;
21270;SDS011;10795;50.796;3.860;2023-05-10T01:56:47;13.95;;;8.55;;
21270;SDS011;10795;50.796;3.860;2023-05-10T01:59:18;18.05;;;9.45;;
21270;SDS011;10795;50.796;3.860;2023-05-10T02:01:46;17.05;;;8.80;;
21270;SDS011;10795;50.796;3.860;2023-05-10T02:04:14;20.90;;;10.00;;
21270;SDS011;10795;50.796;3.860;2023-05-10T02:06:42;17.75;;;9.05;;
21270;SDS011;10795;50.796;3.860;2023-05-10T02:09:10;16.00;;;9.80;;
21270;SDS011;10795;50.796;3.860;2023-05-10T02:11:38;18.83;;;9.25;;
21270;SDS011;10795;50.796;3.860;2023-05-10T02:14:07;17.65;;;10.60;;
21270;SDS011;10795;50.796;3.860;2023-05-10T02:16:36;18.70;;;10.35;;
21270;SDS011;10795;50.796;3.860;2023-05-10T02:19:03;20.83;;;9.63;;
21270;SDS011;10795;50.796;3.860;2023-05-10T02:21:31;20.05;;;10.30;;
21270;SDS011;10795;50.796;3.860;2023-05-10T02:23:59;18.92;;;10.70;;
21270;SDS011;10795;50.796;3.860;2023-05-10T02:26:27;19.02;;;10.52;;
21270;SDS011;10795;50.796;3.860;2023-05-10T02:28:55;23.02;;;11.38;;
21270;SDS011;10795;50.796;3.860;2023-05-10T02:31:23;22.38;;;11.52;;
21270;SDS011;10795;50.796;3.860;2023-05-10T02:33:50;20.13;;;11.25;;
21270;SDS011;10795;50.796;3.860;2023-05-10T02:36:17;19.38;;;10.82;;
21270;SDS011;10795;50.796;3.860;2023-05-10T02:38:45;18.58;;;11.27;;
21270;SDS011;10795;50.796;3.860;2023-05-10T02:41:12;21.88;;;11.45;;
21270;SDS011;10795;50.796;3.860;2023-05-10T02:43:39;19.02;;;11.77;;
21270;SDS011;10795;50.796;3.860;2023-05-10T02:46:05;19.98;;;12.20;;
21270;SDS011;10795;50.796;3.860;2023-05-10T02:48:33;20.48;;;11.73;;
21270;SDS011;10795;50.796;3.860;2023-05-10T02:51:00;21.27;;;13.02;;
21270;SDS011;10795;50.796;3.860;2023-05-10T02:53:31;23.90;;;12.95;;
21270;SDS011;10795;50.796;3.860;2023-05-10T02:55:59;20.23;;;11.75;;
21270;SDS011;10795;50.796;3.860;2023-05-10T02:58:29;22.40;;;11.50;;
21270;SDS011;10795;50.796;3.860;2023-05-10T03:00:55;25.75;;;13.32;;
21270;SDS011;10795;50.796;3.860;2023-05-10T03:03:20;21.92;;;12.48;;
21270;SDS011;10795;50.796;3.860;2023-05-10T03:05:49;20.83;;;12.13;;
21270;SDS011;10795;50.796;3.860;2023-05-10T03:08:14;29.85;;;12.48;;
21270;SDS011;10795;50.796;3.860;2023-05-10T03:16:23;23.77;;;14.13;;
21270;SDS011;10795;50.796;3.860;2023-05-10T03:19:06;22.77;;;13.40;;
21270;SDS011;10795;50.796;3.860;2023-05-10T03:21:52;24.70;;;13.25;;
21270;SDS011;10795;50.796;3.860;2023-05-10T03:24:23;26.17;;;13.02;;
21270;SDS011;10795;50.796;3.860;2023-05-10T03:26:56;19.10;;;11.43;;
21270;SDS011;10795;50.796;3.860;2023-05-10T03:29:25;20.47;;;10.70;;
21270;SDS011;10795;50.796;3.860;2023-05-10T03:31:51;27.13;;;11.80;;
21270;SDS011;10795;50.796;3.860;2023-05-10T03:34:22;21.10;;;11.95;;
21270;SDS011;10795;50.796;3.860;2023-05-10T03:36:49;21.27;;;11.38;;
21270;SDS011;10795;50.796;3.860;2023-05-10T03:39:15;23.08;;;10.20;;
21270;SDS011;10795;50.796;3.860;2023-05-10T03:41:46;22.20;;;10.40;;
21270;SDS011;10795;50.796;3.860;2023-05-10T03:44:12;19.90;;;10.18;;
21270;SDS011;10795;50.796;3.860;2023-05-10T03:46:38;14.55;;;8.20;;
21270;SDS011;10795;50.796;3.860;2023-05-10T03:49:04;20.63;;;9.80;;
21270;SDS011;10795;50.796;3.860;2023-05-10T03:51:30;27.17;;;9.30;;
21270;SDS011;10795;50.796;3.860;2023-05-10T03:53:56;27.67;;;9.82;;
21270;SDS011;10795;50.796;3.860;2023-05-10T03:56:22;19.88;;;9.70;;
21270;SDS011;10795;50.796;3.860;2023-05-10T03:58:49;14.00;;;7.32;;
21270;SDS011;10795;50.796;3.860;2023-05-10T04:01:14;18.30;;;8.98;;
21270;SDS011;10795;50.796;3.860;2023-05-10T04:03:40;17.80;;;9.65;;
21270;SDS011;10795;50.796;3.860;2023-05-10T04:06:06;21.20;;;9.73;;
21270;SDS011;10795;50.796;3.860;2023-05-10T04:08:34;19.17;;;8.40;;
21270;SDS011;10795;50.796;3.860;2023-05-10T04:11:06;14.93;;;7.72;;
21270;SDS011;10795;50.796;3.860;2023-05-10T04:13:32;21.98;;;9.32;;
21270;SDS011;10795;50.796;3.860;2023-05-10T04:15:58;20.67;;;8.88;;
21270;SDS011;10795;50.796;3.860;2023-05-10T04:18:24;18.30;;;9.05;;
21270;SDS011;10795;50.796;3.860;2023-05-10T04:20:50;16.58;;;8.93;;
21270;SDS011;10795;50.796;3.860;2023-05-10T04:23:16;23.10;;;10.10;;
21270;SDS011;10795;50.796;3.860;2023-05-10T04:25:42;23.92;;;9.60;;
21270;SDS011;10795;50.796;3.860;2023-05-10T04:28:08;24.20;;;9.93;;
21270;SDS011;10795;50.796;3.860;2023-05-10T04:30:34;19.77;;;9.75;;
21270;SDS011;10795;50.796;3.860;2023-05-10T04:33:00;21.17;;;9.10;;
21270;SDS011;10795;50.796;3.860;2023-05-10T04:35:29;23.87;;;11.23;;
21270;SDS011;10795;50.796;3.860;2023-05-10T04:37:55;25.60;;;10.32;;
21270;SDS011;10795;50.796;3.860;2023-05-10T04:40:21;22.35;;;10.05;;
21270;SDS011;10795;50.796;3.860;2023-05-10T04:42:47;23.48;;;11.60;;
21270;SDS011;10795;50.796;3.860;2023-05-10T04:45:12;21.80;;;10.48;;
21270;SDS011;10795;50.796;3.860;2023-05-10T04:47:42;26.45;;;10.52;;
21270;SDS011;10795;50.796;3.860;2023-05-10T04:50:07;25.13;;;11.23;;
21270;SDS011;10795;50.796;3.860;2023-05-10T04:52:34;25.00;;;11.25;;
21270;SDS011;10795;50.796;3.860;2023-05-10T04:54:59;35.92;;;11.98;;
21270;SDS011;10795;50.796;3.860;2023-05-10T04:57:25;26.75;;;11.48;;
21270;SDS011;10795;50.796;3.860;2023-05-10T04:59:51;27.85;;;11.93;;
21270;SDS011;10795;50.796;3.860;2023-05-10T05:02:17;28.95;;;14.02;;
21270;SDS011;10795;50.796;3.860;2023-05-10T05:04:43;33.72;;;12.75;;
21270;SDS011;10795;50.796;3.860;2023-05-10T05:07:09;31.00;;;11.60;;
21270;SDS011;10795;50.796;3.860;2023-05-10T05:09:34;25.33;;;12.45;;
21270;SDS011;10795;50.796;3.860;2023-05-10T05:12:00;29.83;;;13.18;;
21270;SDS011;10795;50.796;3.860;2023-05-10T05:14:26;26.75;;;11.68;;
21270;SDS011;10795;50.796;3.860;2023-05-10T05:16:52;23.23;;;12.00;;
21270;SDS011;10795;50.796;3.860;2023-05-10T05:19:18;25.98;;;12.45;;
21270;SDS011;10795;50.796;3.860;2023-05-10T05:21:44;25.85;;;11.50;;
21270;SDS011;10795;50.796;3.860;2023-05-10T05:24:10;25.60;;;12.00;;
21270;SDS011;10795;50.796;3.860;2023-05-10T05:26:37;19.95;;;8.68;;
21270;SDS011;10795;50.796;3.860;2023-05-10T05:29:03;22.67;;;11.02;;
21270;SDS011;10795;50.796;3.860;2023-05-10T05:31:29;24.88;;;12.75;;
21270;SDS011;10795;50.796;3.860;2023-05-10T05:33:55;23.75;;;12.50;;
21270;SDS011;10795;50.796;3.860;2023-05-10T05:36:21;25.75;;;11.65;;
21270;SDS011;10795;50.796;3.860;2023-05-10T05:38:47;25.88;;;11.73;;
21270;SDS011;10795;50.796;3.860;2023-05-10T05:41:13;27.23;;;10.43;;
21270;SDS011;10795;50.796;3.860;2023-05-10T05:43:39;19.55;;;10.65;;
21270;SDS011;10795;50.796;3.860;2023-05-10T05:46:05;20.85;;;10.27;;
21270;SDS011;10795;50.796;3.860;2023-05-10T05:48:31;22.27;;;11.05;;
21270;SDS011;10795;50.796;3.860;2023-05-10T05:50:57;22.20;;;11.32;;
21270;SDS011;10795;50.796;3.860;2023-05-10T05:53:23;23.80;;;10.90;;
21270;SDS011;10795;50.796;3.860;2023-05-10T05:55:56;21.48;;;11.07;;
21270;SDS011;10795;50.796;3.860;2023-05-10T05:58:23;24.92;;;12.35;;
21270;SDS011;10795;50.796;3.860;2023-05-10T06:00:49;24.85;;;12.15;;
21270;SDS011;10795;50.796;3.860;2023-05-10T06:03:17;29.10;;;12.75;;
21270;SDS011;10795;50.796;3.860;2023-05-10T06:05:43;28.52;;;11.68;;
21270;SDS011;10795;50.796;3.860;2023-05-10T06:08:09;25.23;;;11.77;;
21270;SDS011;10795;50.796;3.860;2023-05-10T06:10:35;24.70;;;12.13;;
21270;SDS011;10795;50.796;3.860;2023-05-10T06:13:01;24.15;;;10.90;;
21270;SDS011;10795;50.796;3.860;2023-05-10T06:15:27;24.50;;;10.85;;
21270;SDS011;10795;50.796;3.860;2023-05-10T06:17:53;22.50;;;11.05;;
21270;SDS011;10795;50.796;3.860;2023-05-10T06:20:19;19.40;;;9.90;;
21270;SDS011;10795;50.796;3.860;2023-05-10T06:22:44;22.15;;;10.82;;
21270;SDS011;10795;50.796;3.860;2023-05-10T06:25:10;24.55;;;10.30;;
21270;SDS011;10795;50.796;3.860;2023-05-10T06:27:36;23.08;;;10.18;;
21270;SDS011;10795;50.796;3.860;2023-05-10T06:30:02;19.73;;;10.23;;
21270;SDS011;10795;50.796;3.860;2023-05-10T06:32:30;25.33;;;10.27;;
21270;SDS011;10795;50.796;3.860;2023-05-10T06:34:55;27.00;;;11.60;;
21270;SDS011;10795;50.796;3.860;2023-05-10T06:37:21;22.38;;;10.45;;
21270;SDS011;10795;50.796;3.860;2023-05-10T06:39:47;21.33;;;9.70;;
21270;SDS011;10795;50.796;3.860;2023-05-10T06:42:13;19.17;;;9.40;;
21270;SDS011;10795;50.796;3.860;2023-05-10T06:44:39;19.33;;;8.73;;
21270;SDS011;10795;50.796;3.860;2023-05-10T06:47:05;19.85;;;9.02;;
21270;SDS011;10795;50.796;3.860;2023-05-10T06:49:31;22.65;;;7.95;;
21270;SDS011;10795;50.796;3.860;2023-05-10T06:51:57;24.08;;;8.35;;
21270;SDS011;10795;50.796;3.860;2023-05-10T06:54:23;16.42;;;8.35;;
21270;SDS011;10795;50.796;3.860;2023-05-10T06:56:49;16.73;;;7.03;;
21270;SDS011;10795;50.796;3.860;2023-05-10T06:59:14;24.85;;;7.85;;
21270;SDS011;10795;50.796;3.860;2023-05-10T07:01:41;18.38;;;6.95;;
21270;SDS011;10795;50.796;3.860;2023-05-10T07:04:07;16.73;;;6.65;;
21270;SDS011;10795;50.796;3.860;2023-05-10T07:06:33;16.00;;;7.38;;
21270;SDS011;10795;50.796;3.860;2023-05-10T07:08:59;16.67;;;7.65;;
21270;SDS011;10795;50.796;3.860;2023-05-10T07:11:25;20.85;;;7.65;;
21270;SDS011;10795;50.796;3.860;2023-05-10T07:13:51;16.75;;;7.35;;
21270;SDS011;10795;50.796;3.860;2023-05-10T07:16:17;17.20;;;7.57;;
21270;SDS011;10795;50.796;3.860;2023-05-10T07:18:43;15.20;;;7.68;;
21270;SDS011;10795;50.796;3.860;2023-05-10T07:21:09;18.15;;;7.28;;
21270;SDS011;10795;50.796;3.860;2023-05-10T07:23:35;15.35;;;6.65;;
21270;SDS011;10795;50.796;3.860;2023-05-10T07:26:01;14.93;;;6.63;;
21270;SDS011;10795;50.796;3.860;2023-05-10T07:28:27;15.25;;;7.18;;
21270;SDS011;10795;50.796;3.860;2023-05-10T07:30:53;14.00;;;7.03;;
21270;SDS011;10795;50.796;3.860;2023-05-10T07:33:19;15.10;;;7.20;;
21270;SDS011;10795;50.796;3.860;2023-05-10T07:35:45;14.63;;;7.82;;
21270;SDS011;10795;50.796;3.860;2023-05-10T07:38:11;16.02;;;8.20;;
21270;SDS011;10795;50.796;3.860;2023-05-10T07:40:37;20.48;;;8.38;;
21270;SDS011;10795;50.796;3.860;2023-05-10T07:43:03;15.48;;;7.63;;
21270;SDS011;10795;50.796;3.860;2023-05-10T07:45:29;16.83;;;8.23;;
21270;SDS011;10795;50.796;3.860;2023-05-10T07:47:55;16.05;;;8.60;;
21270;SDS011;10795;50.796;3.860;2023-05-10T07:50:21;19.33;;;8.63;;
21270;SDS011;10795;50.796;3.860;2023-05-10T07:52:47;14.68;;;8.02;;
21270;SDS011;10795;50.796;3.860;2023-05-10T07:55:13;14.63;;;9.00;;
21270;SDS011;10795;50.796;3.860;2023-05-10T07:57:39;15.18;;;8.77;;
21270;SDS011;10795;50.796;3.860;2023-05-10T08:00:07;15.43;;;8.45;;
21270;SDS011;10795;50.796;3.860;2023-05-10T08:02:40;15.13;;;7.85;;
21270;SDS011;10795;50.796;3.860;2023-05-10T08:05:06;17.17;;;8.52;;
21270;SDS011;10795;50.796;3.860;2023-05-10T08:07:32;16.08;;;8.55;;
21270;SDS011;10795;50.796;3.860;2023-05-10T08:09:58;15.90;;;8.25;;
21270;SDS011;10795;50.796;3.860;2023-05-10T08:12:24;19.05;;;9.05;;
21270;SDS011;10795;50.796;3.860;2023-05-10T08:14:50;17.23;;;9.27;;
21270;SDS011;10795;50.796;3.860;2023-05-10T08:17:16;21.20;;;10.45;;
21270;SDS011;10795;50.796;3.860;2023-05-10T08:19:42;18.92;;;10.88;;
21270;SDS011;10795;50.796;3.860;2023-05-10T08:22:08;19.50;;;10.95;;
21270;SDS011;10795;50.796;3.860;2023-05-10T08:24:34;19.80;;;10.63;;
21270;SDS011;10795;50.796;3.860;2023-05-10T08:27:04;20.40;;;10.75;;
21270;SDS011;10795;50.796;3.860;2023-05-10T08:29:30;17.73;;;10.50;;
21270;SDS011;10795;50.796;3.860;2023-05-10T08:31:56;20.48;;;11.35;;
21270;SDS011;10795;50.796;3.860;2023-05-10T08:34:22;17.90;;;11.18;;
21270;SDS011;10795;50.796;3.860;2023-05-10T08:36:48;17.25;;;10.80;;
21270;SDS011;10795;50.796;3.860;2023-05-10T08:39:14;19.55;;;9.63;;
21270;SDS011;10795;50.796;3.860;2023-05-10T08:41:40;15.38;;;9.02;;
21270;SDS011;10795;50.796;3.860;2023-05-10T08:44:09;12.98;;;9.45;;
21270;SDS011;10795;50.796;3.860;2023-05-10T08:46:36;17.98;;;9.68;;
21270;SDS011;10795;50.796;3.860;2023-05-10T08:49:06;15.52;;;9.55;;
21270;SDS011;10795;50.796;3.860;2023-05-10T08:51:39;12.90;;;9.27;;
21270;SDS011;10795;50.796;3.860;2023-05-10T08:54:09;14.50;;;9.63;;
21270;SDS011;10795;50.796;3.860;2023-05-10T08:56:35;15.65;;;9.82;;
21270;SDS011;10795;50.796;3.860;2023-05-10T08:59:01;13.77;;;8.77;;
21270;SDS011;10795;50.796;3.860;2023-05-10T09:01:28;15.40;;;9.13;;
21270;SDS011;10795;50.796;3.860;2023-05-10T09:03:56;11.40;;;8.40;;
21270;SDS011;10795;50.796;3.860;2023-05-10T09:06:22;11.27;;;7.75;;
21270;SDS011;10795;50.796;3.860;2023-05-10T09:08:48;14.30;;;8.65;;
21270;SDS011;10795;50.796;3.860;2023-05-10T09:11:14;10.77;;;8.10;;
21270;SDS011;10795;50.796;3.860;2023-05-10T09:13:42;15.05;;;9.10;;
21270;SDS011;10795;50.796;3.860;2023-05-10T09:16:08;17.38;;;8.65;;
21270;SDS011;10795;50.796;3.860;2023-05-10T09:18:34;11.90;;;8.52;;
21270;SDS011;10795;50.796;3.860;2023-05-10T09:21:00;16.58;;;9.57;;
21270;SDS011;10795;50.796;3.860;2023-05-10T09:23:26;15.45;;;9.40;;
21270;SDS011;10795;50.796;3.860;2023-05-10T09:26:06;14.85;;;10.02;;
21270;SDS011;10795;50.796;3.860;2023-05-10T09:28:52;14.77;;;9.32;;
21270;SDS011;10795;50.796;3.860;2023-05-10T09:31:20;14.73;;;9.18;;
21270;SDS011;10795;50.796;3.860;2023-05-10T09:33:47;16.65;;;9.88;;
21270;SDS011;10795;50.796;3.860;2023-05-10T09:36:14;18.75;;;10.23;;
21270;SDS011;10795;50.796;3.860;2023-05-10T09:38:50;18.40;;;10.90;;
21270;SDS011;10795;50.796;3.860;2023-05-10T09:41:17;19.33;;;10.80;;
21270;SDS011;10795;50.796;3.860;2023-05-10T09:43:45;20.42;;;10.18;;
21270;SDS011;10795;50.796;3.860;2023-05-10T09:46:11;15.05;;;9.48;;
21270;SDS011;10795;50.796;3.860;2023-05-10T09:48:44;15.35;;;9.68;;
21270;SDS011;10795;50.796;3.860;2023-05-10T09:51:18;18.23;;;10.35;;
21270;SDS011;10795;50.796;3.860;2023-05-10T09:53:48;19.85;;;10.38;;
21270;SDS011;10795;50.796;3.860;2023-05-10T09:56:33;15.98;;;10.40;;
21270;SDS011;10795;50.796;3.860;2023-05-10T09:59:05;15.77;;;9.48;;
21270;SDS011;10795;50.796;3.860;2023-05-10T10:01:32;16.85;;;9.60;;
21270;SDS011;10795;50.796;3.860;2023-05-10T10:04:00;16.98;;;9.27;;
21270;SDS011;10795;50.796;3.860;2023-05-10T10:06:38;15.90;;;10.90;;
21270;SDS011;10795;50.796;3.860;2023-05-10T10:09:08;14.40;;;9.48;;
21270;SDS011;10795;50.796;3.860;2023-05-10T10:11:35;21.75;;;10.50;;
21270;SDS011;10795;50.796;3.860;2023-05-10T10:14:01;19.75;;;10.85;;
21270;SDS011;10795;50.796;3.860;2023-05-10T10:16:31;19.17;;;11.00;;
21270;SDS011;10795;50.796;3.860;2023-05-10T10:18:57;18.10;;;10.48;;
21270;SDS011;10795;50.796;3.860;2023-05-10T10:21:23;18.88;;;11.90;;
21270;SDS011;10795;50.796;3.860;2023-05-10T10:23:50;18.77;;;10.40;;
21270;SDS011;10795;50.796;3.860;2023-05-10T10:26:17;19.75;;;10.73;;
21270;SDS011;10795;50.796;3.860;2023-05-10T10:28:51;20.65;;;11.13;;
21270;SDS011;10795;50.796;3.860;2023-05-10T10:34:44;17.92;;;10.70;;
21270;SDS011;10795;50.796;3.860;2023-05-10T10:36:54;19.83;;;11.23;;
21270;SDS011;10795;50.796;3.860;2023-05-10T10:39:21;15.93;;;10.15;;
21270;SDS011;10795;50.796;3.860;2023-05-10T10:41:51;16.48;;;9.63;;
21270;SDS011;10795;50.796;3.860;2023-05-10T10:44:25;18.35;;;9.95;;
21270;SDS011;10795;50.796;3.860;2023-05-10T10:47:10;15.43;;;10.65;;
21270;SDS011;10795;50.796;3.860;2023-05-10T10:49:50;20.10;;;11.43;;
21270;SDS011;10795;50.796;3.860;2023-05-10T10:57:42;18.88;;;12.02;;
21270;SDS011;10795;50.796;3.860;2023-05-10T11:00:32;16.23;;;10.43;;
21270;SDS011;10795;50.796;3.860;2023-05-10T11:03:08;13.90;;;9.02;;
21270;SDS011;10795;50.796;3.860;2023-05-10T11:05:49;19.08;;;10.80;;
21270;SDS011;10795;50.796;3.860;2023-05-10T11:08:27;18.30;;;10.30;;
21270;SDS011;10795;50.796;3.860;2023-05-10T11:11:02;17.83;;;11.02;;
21270;SDS011;10795;50.796;3.860;2023-05-10T11:21:19;12.88;;;9.70;;
21270;SDS011;10795;50.796;3.860;2023-05-10T11:26:19;18.90;;;11.23;;
21270;SDS011;10795;50.796;3.860;2023-05-10T11:28:48;16.33;;;10.80;;
21270;SDS011;10795;50.796;3.860;2023-05-10T11:31:18;17.27;;;10.43;;
21270;SDS011;10795;50.796;3.860;2023-05-10T11:33:45;12.50;;;7.72;;
21270;SDS011;10795;50.796;3.860;2023-05-10T11:36:19;17.67;;;10.68;;
21270;SDS011;10795;50.796;3.860;2023-05-10T11:38:47;17.02;;;11.57;;
21270;SDS011;10795;50.796;3.860;2023-05-10T11:41:14;14.05;;;9.05;;
21270;SDS011;10795;50.796;3.860;2023-05-10T11:43:42;14.43;;;8.93;;
21270;SDS011;10795;50.796;3.860;2023-05-10T11:46:09;11.20;;;7.97;;
21270;SDS011;10795;50.796;3.860;2023-05-10T11:48:37;17.75;;;11.65;;
21270;SDS011;10795;50.796;3.860;2023-05-10T11:51:04;14.82;;;10.15;;
21270;SDS011;10795;50.796;3.860;2023-05-10T11:53:32;15.07;;;11.20;;
21270;SDS011;10795;50.796;3.860;2023-05-10T11:56:10;13.30;;;8.98;;
21270;SDS011;10795;50.796;3.860;2023-05-10T11:58:37;11.98;;;9.63;;
21270;SDS011;10795;50.796;3.860;2023-05-10T12:01:04;18.83;;;11.90;;
21270;SDS011;10795;50.796;3.860;2023-05-10T12:03:31;16.50;;;10.30;;
21270;SDS011;10795;50.796;3.860;2023-05-10T12:05:58;15.77;;;10.73;;
21270;SDS011;10795;50.796;3.860;2023-05-10T12:08:26;13.85;;;10.40;;
21270;SDS011;10795;50.796;3.860;2023-05-10T12:10:54;17.35;;;11.45;;
21270;SDS011;10795;50.796;3.860;2023-05-10T12:13:30;23.15;;;13.20;;
21270;SDS011;10795;50.796;3.860;2023-05-10T12:15:59;21.02;;;13.20;;
21270;SDS011;10795;50.796;3.860;2023-05-10T12:18:25;17.77;;;12.65;;
21270;SDS011;10795;50.796;3.860;2023-05-10T12:20:51;20.35;;;13.48;;
21270;SDS011;10795;50.796;3.860;2023-05-10T12:23:18;17.25;;;11.63;;
21270;SDS011;10795;50.796;3.860;2023-05-10T12:25:45;17.23;;;12.30;;
21270;SDS011;10795;50.796;3.860;2023-05-10T12:28:11;20.40;;;11.90;;
21270;SDS011;10795;50.796;3.860;2023-05-10T12:30:37;17.67;;;11.32;;
21270;SDS011;10795;50.796;3.860;2023-05-10T12:33:08;20.42;;;12.57;;
21270;SDS011;10795;50.796;3.860;2023-05-10T12:41:01;18.70;;;12.88;;
21270;SDS011;10795;50.796;3.860;2023-05-10T12:43:31;18.33;;;12.07;;
21270;SDS011;10795;50.796;3.860;2023-05-10T12:45:57;14.82;;;9.55;;
21270;SDS011;10795;50.796;3.860;2023-05-10T12:48:23;18.77;;;11.90;;
21270;SDS011;10795;50.796;3.860;2023-05-10T12:50:49;17.60;;;11.65;;
21270;SDS011;10795;50.796;3.860;2023-05-10T12:53:15;13.30;;;9.07;;
21270;SDS011;10795;50.796;3.860;2023-05-10T12:55:42;17.50;;;10.85;;
21270;SDS011;10795;50.796;3.860;2023-05-10T12:58:08;17.75;;;10.88;;
21270;SDS011;10795;50.796;3.860;2023-05-10T13:00:34;17.45;;;11.23;;
21270;SDS011;10795;50.796;3.860;2023-05-10T13:03:00;15.40;;;10.50;;
21270;SDS011;10795;50.796;3.860;2023-05-10T13:05:25;13.98;;;10.15;;
21270;SDS011;10795;50.796;3.860;2023-05-10T13:07:51;17.42;;;11.20;;
21270;SDS011;10795;50.796;3.860;2023-05-10T13:10:17;13.30;;;8.40;;
21270;SDS011;10795;50.796;3.860;2023-05-10T13:12:43;17.27;;;11.52;;
21270;SDS011;10795;50.796;3.860;2023-05-10T13:15:08;13.88;;;10.13;;
21270;SDS011;10795;50.796;3.860;2023-05-10T13:17:35;15.65;;;11.65;;
21270;SDS011;10795;50.796;3.860;2023-05-10T13:20:00;16.52;;;10.93;;
21270;SDS011;10795;50.796;3.860;2023-05-10T13:22:26;12.68;;;9.30;;
21270;SDS011;10795;50.796;3.860;2023-05-10T13:24:52;16.08;;;9.55;;
21270;SDS011;10795;50.796;3.860;2023-05-10T13:27:18;11.07;;;8.10;;
21270;SDS011;10795;50.796;3.860;2023-05-10T13:29:43;20.20;;;11.77;;
21270;SDS011;10795;50.796;3.860;2023-05-10T13:32:09;13.43;;;9.50;;
21270;SDS011;10795;50.796;3.860;2023-05-10T13:34:35;18.33;;;11.30;;
21270;SDS011;10795;50.796;3.860;2023-05-10T13:37:01;16.73;;;10.60;;
21270;SDS011;10795;50.796;3.860;2023-05-10T13:39:27;15.50;;;10.85;;
21270;SDS011;10795;50.796;3.860;2023-05-10T13:41:55;14.45;;;9.38;;
21270;SDS011;10795;50.796;3.860;2023-05-10T13:44:21;16.92;;;11.80;;
21270;SDS011;10795;50.796;3.860;2023-05-10T13:46:47;13.88;;;10.23;;
21270;SDS011;10795;50.796;3.860;2023-05-10T13:49:13;12.98;;;10.40;;
21270;SDS011;10795;50.796;3.860;2023-05-10T13:51:39;15.90;;;10.88;;
21270;SDS011;10795;50.796;3.860;2023-05-10T13:54:04;17.92;;;10.35;;
21270;SDS011;10795;50.796;3.860;2023-05-10T13:56:30;14.00;;;9.90;;
21270;SDS011;10795;50.796;3.860;2023-05-10T13:58:56;17.85;;;11.77;;
21270;SDS011;10795;50.796;3.860;2023-05-10T14:01:23;11.57;;;8.07;;
21270;SDS011;10795;50.796;3.860;2023-05-10T14:03:49;11.10;;;7.43;;
21270;SDS011;10795;50.796;3.860;2023-05-10T14:06:15;15.90;;;11.23;;
21270;SDS011;10795;50.796;3.860;2023-05-10T14:08:41;16.23;;;11.35;;
21270;SDS011;10795;50.796;3.860;2023-05-10T14:11:07;7.22;;;5.53;;
21270;SDS011;10795;50.796;3.860;2023-05-10T14:13:33;12.68;;;7.40;;
21270;SDS011;10795;50.796;3.860;2023-05-10T14:15:59;4.75;;;3.72;;
21270;SDS011;10795;50.796;3.860;2023-05-10T14:18:26;9.63;;;6.25;;
21270;SDS011;10795;50.796;3.860;2023-05-10T14:20:52;3.63;;;3.33;;
21270;SDS011;10795;50.796;3.860;2023-05-10T14:23:18;7.03;;;4.70;;
21270;SDS011;10795;50.796;3.860;2023-05-10T14:25:49;7.13;;;4.60;;
21270;SDS011;10795;50.796;3.860;2023-05-10T14:28:16;14.57;;;9.30;;
21270;SDS011;10795;50.796;3.860;2023-05-10T14:30:43;12.75;;;7.43;;
21270;SDS011;10795;50.796;3.860;2023-05-10T14:33:09;15.43;;;8.45;;
21270;SDS011;10795;50.796;3.860;2023-05-10T14:35:35;14.68;;;9.38;;
21270;SDS011;10795;50.796;3.860;2023-05-10T14:38:01;14.20;;;9.35;;
21270;SDS011;10795;50.796;3.860;2023-05-10T14:40:28;17.13;;;10.38;;
21270;SDS011;10795;50.796;3.860;2023-05-10T14:42:55;18.02;;;10.25;;
21270;SDS011;10795;50.796;3.860;2023-05-10T14:45:21;15.45;;;10.07;;
21270;SDS011;10795;50.796;3.860;2023-05-10T14:47:47;13.15;;;10.57;;
21270;SDS011;10795;50.796;3.860;2023-05-10T14:50:14;13.00;;;9.63;;
21270;SDS011;10795;50.796;3.860;2023-05-10T14:52:41;14.35;;;9.60;;
21270;SDS011;10795;50.796;3.860;2023-05-10T14:55:07;13.57;;;10.57;;
21270;SDS011;10795;50.796;3.860;2023-05-10T14:57:34;14.15;;;9.77;;
21270;SDS011;10795;50.796;3.860;2023-05-10T14:59:59;11.55;;;7.78;;
21270;SDS011;10795;50.796;3.860;2023-05-10T15:02:25;11.18;;;8.60;;
21270;SDS011;10795;50.796;3.860;2023-05-10T15:04:51;12.70;;;8.00;;
21270;SDS011;10795;50.796;3.860;2023-05-10T15:07:17;12.25;;;8.38;;
21270;SDS011;10795;50.796;3.860;2023-05-10T15:09:44;10.00;;;8.27;;
21270;SDS011;10795;50.796;3.860;2023-05-10T15:12:10;8.52;;;5.97;;
21270;SDS011;10795;50.796;3.860;2023-05-10T15:14:36;12.88;;;8.23;;
21270;SDS011;10795;50.796;3.860;2023-05-10T15:17:02;14.02;;;7.85;;
21270;SDS011;10795;50.796;3.860;2023-05-10T15:19:28;8.70;;;6.65;;